Ghardaia, Algeria
Current Conditions -  °F | °C
As of 5:00 PM on Saturday 22 Nov 2014 (Local Time) from DAUG Reporting Station
Scattered Clouds Scattered Clouds  
Wind Chill: 75°   Ceiling: Unl
Heat Index: 75°   Visibility: 6mi
Dew Point: 32°   Wind: 14mph
Humidity: 21%   Direction: 140°SE
Pressure: 30.18"   Gusts: NA
Location:  32.49°N, 3.68°E
Report Text: DAUG 221600Z 14012KT 9999 FEW046 SCT233 24/00 Q1022
Loading
Personal Weather Stations






























Interactive Weather Map New forecast layout! Learn more

10-Day Weather Forecast

Advertisements
Track Severe Weather on mobile